Terminal Aerodrome Forecast
Issued by NWS

Home | Current Version | Previous Version | Text Only | Print | Product List | Glossary On
Versions: 1 2 3 4 5 6 7 8 9 10 11 12 13
806
FTUS42 TJSJ 302320
TAFIST
TAF
TIST 302320Z 0100/0124 11013KT P6SM VCSH SCT030 SCT080
      TEMPO 0100/0102 12013G18KT -SHRA SCT018 BKN030
     FM011300 07015G23KT P6SM VCSH SCT025 SCT090
     FM012300 08012G18KT P6SM -SHRA VCTS SCT025CB BKN040 BKN060=

USA.gov is the U.S. government's official web portal to all federal, state and local government web resources and services.